Time;durP1;ratioP1;P1;durP2;ratioP2;P2;SDS_P1;SDS_P2;PMS_P1;PMS_P2;Temp;Humidity;BMP_temperature;BMP_pressure;BME280_temperature;BME280_humidity;BME280_pressure;Samples;Min_cycle;Max_cycle;Signal;HPM_P1;HPM_P2
2021/07/25 00:02:16;;;;;;;7.13;3.45;;;;;;;;;;4969866;28;20061;-74
2021/07/25 00:04:45;;;;;;;5.90;2.70;;;;;;;;;;4960691;28;20481;-75
2021/07/25 00:07:15;;;;;;;9.55;3.95;;;;;;;;;;4970714;28;20093;-73
2021/07/25 00:09:43;;;;;;;8.05;3.42;;;;;;;;;;4967908;28;20608;-74
2021/07/25 00:12:12;;;;;;;10.27;3.47;;;;;;;;;;4960791;28;20134;-74
2021/07/25 00:14:40;;;;;;;5.05;2.53;;;;;;;;;;4971332;28;20081;-73
2021/07/25 00:17:08;;;;;;;10.30;3.08;;;;;;;;;;4961051;28;20047;-76
2021/07/25 00:19:37;;;;;;;7.05;3.40;;;;;;;;;;4985989;28;20058;-74
2021/07/25 00:22:05;;;;;;;7.28;3.55;;;;;;;;;;4966651;28;20038;-74
2021/07/25 00:24:37;;;;;;;10.13;3.25;;;;;;;;;;4954696;28;20499;-75
2021/07/25 00:27:06;;;;;;;6.85;3.50;;;;;;;;;;4959575;28;20125;-74
2021/07/25 00:29:34;;;;;;;5.47;2.78;;;;;;;;;;4954873;28;20463;-75
2021/07/25 00:32:03;;;;;;;4.88;3.20;;;;;;;;;;4967368;28;20058;-73
2021/07/25 00:34:32;;;;;;;5.72;2.58;;;;;;;;;;4954096;28;20075;-73
2021/07/25 00:37:00;;;;;;;7.90;3.13;;;;;;;;;;4964123;28;20463;-74
2021/07/25 00:39:29;;;;;;;7.03;2.90;;;;;;;;;;4962350;28;20055;-74
2021/07/25 00:41:59;;;;;;;6.80;2.80;;;;;;;;;;4954630;28;20051;-73
2021/07/25 00:44:27;;;;;;;8.93;2.80;;;;;;;;;;4961537;28;20046;-75
2021/07/25 00:46:58;;;;;;;9.43;3.40;;;;;;;;;;4970951;28;20141;-74
2021/07/25 00:49:27;;;;;;;8.55;3.67;;;;;;;;;;4953391;28;20572;-74
2021/07/25 00:51:56;;;;;;;8.32;3.17;;;;;;;;;;4955869;28;20053;-75
2021/07/25 00:54:25;;;;;;;10.80;3.53;;;;;;;;;;4961656;28;20051;-74
2021/07/25 00:56:53;;;;;;;5.25;2.72;;;;;;;;;;4952820;29;20055;-73
2021/07/25 00:59:22;;;;;;;7.93;3.08;;;;;;;;;;4959388;28;20078;-74
2021/07/25 01:04:40;;;;;;;8.32;3.35;;;;;;;;;;4937876;29;20058;-60
2021/07/25 01:07:25;;;;;;;6.03;3.35;;;;;;;;;;4945132;29;20415;-60
2021/07/25 01:09:56;;;;;;;7.45;2.78;;;;;;;;;;4948186;29;20146;-60
2021/07/25 01:12:25;;;;;;;9.30;3.42;;;;;;;;;;4948617;29;20074;-59
2021/07/25 01:14:57;;;;;;;5.70;3.53;;;;;;;;;;4948712;29;20511;-60
2021/07/25 01:17:26;;;;;;;7.00;3.20;;;;;;;;;;4947994;29;20135;-59
2021/07/25 01:19:56;;;;;;;6.10;3.15;;;;;;;;;;4949103;29;20055;-59
2021/07/25 01:22:25;;;;;;;9.60;3.20;;;;;;;;;;4946119;29;20140;-59
2021/07/25 01:24:53;;;;;;;5.80;3.08;;;;;;;;;;4948441;28;20051;-59
2021/07/25 01:27:23;;;;;;;8.02;3.17;;;;;;;;;;4949728;29;20491;-59
2021/07/25 01:29:53;;;;;;;8.95;3.97;;;;;;;;;;4950337;29;20591;-59
2021/07/25 01:32:22;;;;;;;9.80;3.33;;;;;;;;;;4950803;29;20059;-59
2021/07/25 01:34:52;;;;;;;8.40;4.07;;;;;;;;;;4937567;29;20083;-59
2021/07/25 01:37:22;;;;;;;6.93;3.70;;;;;;;;;;4951146;29;20065;-59
2021/07/25 01:39:50;;;;;;;7.38;3.60;;;;;;;;;;4948616;29;20093;-59
2021/07/25 01:42:27;;;;;;;11.30;3.65;;;;;;;;;;4949330;29;20047;-60
2021/07/25 01:44:56;;;;;;;8.15;3.30;;;;;;;;;;4949476;28;20051;-59
2021/07/25 01:47:24;;;;;;;6.60;3.33;;;;;;;;;;4948520;29;20055;-59
2021/07/25 01:49:52;;;;;;;6.78;2.92;;;;;;;;;;4949145;29;20043;-59
2021/07/25 01:52:22;;;;;;;9.98;3.60;;;;;;;;;;4940927;29;20039;-59
2021/07/25 01:54:50;;;;;;;7.13;3.17;;;;;;;;;;4948780;28;20546;-60
2021/07/25 01:57:19;;;;;;;9.63;3.75;;;;;;;;;;4950925;29;20047;-60
2021/07/25 01:59:47;;;;;;;7.80;3.25;;;;;;;;;;4948560;29;20538;-59
2021/07/25 02:02:15;;;;;;;5.35;3.22;;;;;;;;;;4950572;28;20352;-59
2021/07/25 02:04:44;;;;;;;5.32;3.00;;;;;;;;;;4969917;28;20110;-58
2021/07/25 02:07:12;;;;;;;8.27;3.08;;;;;;;;;;4962128;28;20047;-58
2021/07/25 02:09:41;;;;;;;5.93;3.05;;;;;;;;;;4969025;28;20501;-58
2021/07/25 02:12:10;;;;;;;9.30;3.42;;;;;;;;;;4967562;28;20162;-58
2021/07/25 02:14:39;;;;;;;8.32;3.28;;;;;;;;;;4958680;28;20055;-60
2021/07/25 02:17:09;;;;;;;8.23;3.60;;;;;;;;;;4962151;28;20047;-58
2021/07/25 02:19:37;;;;;;;9.90;4.15;;;;;;;;;;4969670;28;20438;-60
2021/07/25 02:22:06;;;;;;;6.15;3.00;;;;;;;;;;4956099;28;20055;-58
2021/07/25 02:24:34;;;;;;;7.43;3.30;;;;;;;;;;4963168;28;20495;-58
2021/07/25 02:27:04;;;;;;;6.28;3.10;;;;;;;;;;4960226;28;20054;-59
2021/07/25 02:29:32;;;;;;;5.00;3.03;;;;;;;;;;4969222;28;20053;-58
2021/07/25 02:32:00;;;;;;;5.03;3.33;;;;;;;;;;4968329;28;20122;-58
2021/07/25 02:34:29;;;;;;;9.05;3.30;;;;;;;;;;4967652;28;20061;-58
2021/07/25 02:36:57;;;;;;;7.95;3.05;;;;;;;;;;4962601;28;20802;-59
2021/07/25 02:39:25;;;;;;;5.90;3.40;;;;;;;;;;4955272;28;20380;-58
2021/07/25 02:41:54;;;;;;;8.48;3.97;;;;;;;;;;4967101;28;20075;-58
2021/07/25 02:44:23;;;;;;;8.68;3.40;;;;;;;;;;4967121;28;20494;-58
2021/07/25 02:46:51;;;;;;;6.15;3.15;;;;;;;;;;4968569;28;20047;-58
2021/07/25 02:49:20;;;;;;;7.78;3.50;;;;;;;;;;4973093;28;20051;-59
2021/07/25 02:51:48;;;;;;;6.15;3.15;;;;;;;;;;4970899;28;20137;-58
2021/07/25 02:54:16;;;;;;;5.38;3.35;;;;;;;;;;4966935;28;20498;-58
2021/07/25 02:56:44;;;;;;;8.40;3.65;;;;;;;;;;4963335;28;20494;-58
2021/07/25 02:59:13;;;;;;;5.70;3.10;;;;;;;;;;4973165;28;20418;-59
2021/07/25 03:01:43;;;;;;;11.68;4.13;;;;;;;;;;4974686;28;20134;-59
2021/07/25 03:04:11;;;;;;;10.00;4.40;;;;;;;;;;4973056;28;20046;-59
2021/07/25 03:06:39;;;;;;;7.63;4.13;;;;;;;;;;4968348;28;20534;-60
2021/07/25 03:09:08;;;;;;;8.15;3.90;;;;;;;;;;4973102;28;20086;-59
2021/07/25 03:11:36;;;;;;;11.85;4.10;;;;;;;;;;4972041;28;20051;-59
2021/07/25 03:14:04;;;;;;;9.25;4.65;;;;;;;;;;4967142;28;20051;-59
2021/07/25 03:16:33;;;;;;;10.15;4.82;;;;;;;;;;4972766;28;20061;-59
2021/07/25 03:19:03;;;;;;;7.55;4.38;;;;;;;;;;4968503;28;20392;-59
2021/07/25 03:21:31;;;;;;;8.23;4.65;;;;;;;;;;4956936;28;20387;-60
2021/07/25 03:23:59;;;;;;;9.27;4.32;;;;;;;;;;4966709;28;20487;-60
2021/07/25 03:26:27;;;;;;;9.57;4.90;;;;;;;;;;4975402;28;20055;-60
2021/07/25 03:29:13;;;;;;;10.25;3.55;;;;;;;;;;4119566;28;10001987;-60
2021/07/25 03:31:41;;;;;;;11.25;4.60;;;;;;;;;;1713121;28;10002081;-60
2021/07/25 03:34:11;;;;;;;9.13;4.68;;;;;;;;;;4962364;28;20059;-60
2021/07/25 03:36:40;;;;;;;8.98;4.03;;;;;;;;;;4968089;28;20043;-60
2021/07/25 03:39:11;;;;;;;15.15;4.82;;;;;;;;;;4980221;28;20049;-59
2021/07/25 03:41:39;;;;;;;8.93;4.32;;;;;;;;;;4970374;28;20057;-60
2021/07/25 03:44:07;;;;;;;9.00;4.30;;;;;;;;;;4965830;28;20138;-59
2021/07/25 03:46:35;;;;;;;7.55;4.70;;;;;;;;;;4971052;28;20142;-59
2021/07/25 03:49:04;;;;;;;6.80;4.15;;;;;;;;;;4971488;28;20043;-60
2021/07/25 03:51:33;;;;;;;10.05;3.85;;;;;;;;;;4971874;28;20054;-59
2021/07/25 03:54:02;;;;;;;6.88;4.15;;;;;;;;;;4967367;28;20047;-59
2021/07/25 03:56:30;;;;;;;9.80;4.38;;;;;;;;;;4957659;28;20057;-60
2021/07/25 03:58:58;;;;;;;6.70;4.15;;;;;;;;;;4968705;28;20102;-60
2021/07/25 04:01:27;;;;;;;7.35;4.45;;;;;;;;;;4969326;28;20086;-59
2021/07/25 04:03:55;;;;;;;11.50;4.65;;;;;;;;;;4964997;28;20054;-60
2021/07/25 04:06:23;;;;;;;9.77;4.47;;;;;;;;;;4952377;29;20059;-59
2021/07/25 04:08:53;;;;;;;10.07;4.30;;;;;;;;;;4965671;28;20491;-60
2021/07/25 04:11:21;;;;;;;15.63;4.88;;;;;;;;;;4971456;28;20158;-60
2021/07/25 04:13:50;;;;;;;9.05;4.00;;;;;;;;;;4963806;28;20055;-59
2021/07/25 04:16:19;;;;;;;12.57;4.60;;;;;;;;;;4950569;29;20043;-59
2021/07/25 04:18:47;;;;;;;8.05;4.38;;;;;;;;;;4946175;28;20047;-59
2021/07/25 04:21:15;;;;;;;11.70;4.60;;;;;;;;;;4939707;29;20488;-59
2021/07/25 04:23:43;;;;;;;12.73;4.72;;;;;;;;;;4943360;28;20054;-59
2021/07/25 04:26:13;;;;;;;13.23;4.63;;;;;;;;;;4934164;29;20139;-60
2021/07/25 04:28:42;;;;;;;7.22;4.03;;;;;;;;;;4941891;29;20134;-60
2021/07/25 04:31:10;;;;;;;7.85;3.97;;;;;;;;;;4945492;29;20047;-60
2021/07/25 04:33:41;;;;;;;11.32;4.57;;;;;;;;;;4949389;28;20158;-60
2021/07/25 04:36:13;;;;;;;10.77;4.40;;;;;;;;;;4960798;28;20051;-59
2021/07/25 04:38:42;;;;;;;8.35;4.60;;;;;;;;;;4965113;28;20047;-60
2021/07/25 04:41:14;;;;;;;14.13;4.38;;;;;;;;;;4960587;28;20045;-59
2021/07/25 04:43:44;;;;;;;10.52;4.45;;;;;;;;;;4960630;28;20577;-59
2021/07/25 04:46:17;;;;;;;8.25;3.80;;;;;;;;;;4963974;28;20060;-59
2021/07/25 04:48:48;;;;;;;10.52;4.20;;;;;;;;;;4970358;28;20059;-59
2021/07/25 04:51:16;;;;;;;8.10;4.13;;;;;;;;;;4971471;28;20050;-60
2021/07/25 04:53:45;;;;;;;13.40;3.97;;;;;;;;;;4969995;28;20093;-59
2021/07/25 04:56:14;;;;;;;12.05;4.53;;;;;;;;;;4961036;28;20493;-60
2021/07/25 04:58:48;;;;;;;12.13;5.07;;;;;;;;;;4967984;28;20054;-59
2021/07/25 05:01:18;;;;;;;8.82;4.25;;;;;;;;;;4963679;28;20452;-59
2021/07/25 05:03:48;;;;;;;6.53;3.88;;;;;;;;;;4966322;28;20059;-59
2021/07/25 05:06:16;;;;;;;8.50;4.43;;;;;;;;;;4956910;28;20137;-59
2021/07/25 05:08:45;;;;;;;12.40;4.22;;;;;;;;;;4963560;28;20050;-59
2021/07/25 05:11:16;;;;;;;8.70;4.40;;;;;;;;;;4961080;28;20495;-59
2021/07/25 05:13:48;;;;;;;12.70;4.65;;;;;;;;;;4949739;28;20126;-60
2021/07/25 05:16:26;;;;;;;9.88;4.50;;;;;;;;;;4959656;28;20484;-59
2021/07/25 05:18:59;;;;;;;9.30;4.13;;;;;;;;;;4967479;28;20102;-59
2021/07/25 05:21:30;;;;;;;10.70;4.30;;;;;;;;;;4965381;28;20126;-59
2021/07/25 05:24:01;;;;;;;10.82;4.53;;;;;;;;;;4964344;28;20752;-59
2021/07/25 05:26:29;;;;;;;8.32;4.57;;;;;;;;;;4965162;28;20047;-60
2021/07/25 05:28:59;;;;;;;11.25;5.10;;;;;;;;;;4961801;28;20101;-60
2021/07/25 05:31:31;;;;;;;9.30;4.28;;;;;;;;;;4959193;28;20178;-59
2021/07/25 05:34:00;;;;;;;9.50;4.45;;;;;;;;;;4962370;28;20130;-60
2021/07/25 05:36:28;;;;;;;9.82;4.65;;;;;;;;;;4959822;28;20129;-59
2021/07/25 05:38:57;;;;;;;7.50;4.40;;;;;;;;;;4968622;28;20125;-59
2021/07/25 05:41:25;;;;;;;9.77;4.35;;;;;;;;;;4970865;28;20050;-59
2021/07/25 05:43:53;;;;;;;7.25;3.97;;;;;;;;;;4963493;28;20101;-59
2021/07/25 05:46:23;;;;;;;9.40;4.38;;;;;;;;;;4970199;28;20057;-59
2021/07/25 05:48:51;;;;;;;10.65;4.05;;;;;;;;;;4969476;28;20050;-59
2021/07/25 05:51:19;;;;;;;9.95;4.25;;;;;;;;;;4970020;28;20082;-60
2021/07/25 05:53:48;;;;;;;10.05;4.72;;;;;;;;;;4967996;28;20051;-59
2021/07/25 05:56:16;;;;;;;8.82;4.10;;;;;;;;;;4968926;28;20173;-59
2021/07/25 05:58:44;;;;;;;9.40;4.53;;;;;;;;;;4970276;28;20046;-59
2021/07/25 06:01:12;;;;;;;14.63;5.30;;;;;;;;;;4964688;28;20048;-59
2021/07/25 06:03:44;;;;;;;10.23;4.32;;;;;;;;;;4965903;28;20117;-59
2021/07/25 06:06:13;;;;;;;7.93;4.50;;;;;;;;;;4968336;28;20059;-59
2021/07/25 06:08:41;;;;;;;10.85;4.85;;;;;;;;;;4963730;28;20515;-59
2021/07/25 06:11:09;;;;;;;10.85;4.93;;;;;;;;;;4967935;28;20493;-59
2021/07/25 06:13:37;;;;;;;9.55;5.15;;;;;;;;;;4966104;28;20198;-59
2021/07/25 06:16:07;;;;;;;9.80;4.80;;;;;;;;;;4957558;28;20134;-59
2021/07/25 06:18:35;;;;;;;8.50;4.25;;;;;;;;;;4966369;28;20057;-60
2021/07/25 06:21:05;;;;;;;11.93;4.80;;;;;;;;;;4970045;28;20841;-59
2021/07/25 06:23:33;;;;;;;12.60;5.22;;;;;;;;;;4967898;28;20383;-59
2021/07/25 06:26:01;;;;;;;9.63;4.63;;;;;;;;;;4970033;28;20053;-59
2021/07/25 06:28:29;;;;;;;7.53;4.35;;;;;;;;;;4960726;28;20134;-61
2021/07/25 06:30:58;;;;;;;12.27;5.18;;;;;;;;;;4952967;28;20066;-60
2021/07/25 06:33:29;;;;;;;10.57;4.97;;;;;;;;;;4965420;28;20050;-60
2021/07/25 06:35:57;;;;;;;11.02;4.93;;;;;;;;;;4937281;28;20063;-60
2021/07/25 06:38:27;;;;;;;9.90;4.63;;;;;;;;;;4940958;28;20059;-60
2021/07/25 06:40:56;;;;;;;10.82;5.35;;;;;;;;;;4933206;29;20051;-61
2021/07/25 06:43:25;;;;;;;10.13;4.72;;;;;;;;;;4941493;28;20051;-59
2021/07/25 06:45:54;;;;;;;8.63;5.22;;;;;;;;;;4950878;28;20054;-60
2021/07/25 06:48:23;;;;;;;10.73;4.90;;;;;;;;;;4950834;29;20415;-59
2021/07/25 06:50:52;;;;;;;9.27;5.05;;;;;;;;;;4951211;29;20138;-59
2021/07/25 06:53:21;;;;;;;10.73;5.03;;;;;;;;;;4950546;28;20047;-60
2021/07/25 06:55:51;;;;;;;10.15;4.97;;;;;;;;;;4956868;28;20054;-59
2021/07/25 06:58:20;;;;;;;11.13;6.18;;;;;;;;;;4940513;28;20050;-59
2021/07/25 07:00:48;;;;;;;9.85;4.63;;;;;;;;;;4945877;28;20157;-59
2021/07/25 07:03:19;;;;;;;9.63;5.20;;;;;;;;;;4960215;28;20074;-60
2021/07/25 07:05:48;;;;;;;9.77;5.15;;;;;;;;;;4964977;28;20057;-59
2021/07/25 07:08:16;;;;;;;8.95;5.00;;;;;;;;;;4965324;28;20089;-59
2021/07/25 07:10:45;;;;;;;11.38;4.80;;;;;;;;;;4953457;28;20134;-58
2021/07/25 07:13:16;;;;;;;7.63;4.63;;;;;;;;;;4955211;28;20219;-60
2021/07/25 07:15:45;;;;;;;9.23;4.35;;;;;;;;;;4963213;28;20057;-59
2021/07/25 07:18:14;;;;;;;14.35;4.95;;;;;;;;;;4967162;28;20043;-58
2021/07/25 07:20:42;;;;;;;8.85;5.00;;;;;;;;;;4969508;28;20090;-59
2021/07/25 07:23:12;;;;;;;8.80;4.75;;;;;;;;;;4969227;28;20046;-58
2021/07/25 07:25:42;;;;;;;8.15;5.28;;;;;;;;;;4952932;28;20450;-59
2021/07/25 07:28:10;;;;;;;11.57;4.93;;;;;;;;;;4950128;28;20059;-58
2021/07/25 07:30:40;;;;;;;12.35;5.05;;;;;;;;;;4950892;29;20234;-59
2021/07/25 07:33:09;;;;;;;7.45;4.88;;;;;;;;;;4949108;28;20059;-58
2021/07/25 07:35:38;;;;;;;8.15;4.57;;;;;;;;;;4950293;28;20310;-58
2021/07/25 07:38:07;;;;;;;8.27;4.65;;;;;;;;;;4959157;28;20050;-59
2021/07/25 07:40:35;;;;;;;8.77;4.75;;;;;;;;;;4955328;28;20059;-59
2021/07/25 07:43:04;;;;;;;6.50;4.45;;;;;;;;;;4948486;28;20058;-59
2021/07/25 07:45:33;;;;;;;9.15;5.00;;;;;;;;;;4942308;28;20150;-58
2021/07/25 07:48:02;;;;;;;9.75;4.63;;;;;;;;;;4949538;28;20146;-58
2021/07/25 07:50:31;;;;;;;7.78;4.22;;;;;;;;;;4948134;28;20530;-59
2021/07/25 07:52:59;;;;;;;11.25;4.45;;;;;;;;;;4949137;28;20047;-59
2021/07/25 07:55:27;;;;;;;7.38;3.88;;;;;;;;;;4962274;28;20053;-59
2021/07/25 07:57:56;;;;;;;8.55;4.35;;;;;;;;;;4969129;28;20061;-58
2021/07/25 08:00:24;;;;;;;7.85;4.28;;;;;;;;;;4968004;28;20050;-58
2021/07/25 08:02:52;;;;;;;6.63;4.38;;;;;;;;;;4969516;28;20149;-58
2021/07/25 08:05:22;;;;;;;17.08;4.22;;;;;;;;;;4968198;28;20101;-58
2021/07/25 08:07:51;;;;;;;11.88;4.82;;;;;;;;;;4968581;28;20502;-59
2021/07/25 08:10:19;;;;;;;19.40;5.00;;;;;;;;;;4967460;28;20141;-58
2021/07/25 08:12:49;;;;;;;19.77;4.78;;;;;;;;;;4968184;28;20058;-58
2021/07/25 08:15:18;;;;;;;10.85;4.95;;;;;;;;;;4967965;28;20070;-58
2021/07/25 08:17:46;;;;;;;23.92;4.63;;;;;;;;;;4968341;28;20395;-59
2021/07/25 08:20:15;;;;;;;16.23;4.70;;;;;;;;;;4967841;28;20169;-59
2021/07/25 08:22:45;;;;;;;27.30;5.38;;;;;;;;;;4966930;28;20130;-60
2021/07/25 08:25:14;;;;;;;5.65;3.80;;;;;;;;;;4958561;28;20086;-60
2021/07/25 08:27:42;;;;;;;10.82;3.80;;;;;;;;;;4969022;28;20054;-58
2021/07/25 08:30:11;;;;;;;22.05;4.40;;;;;;;;;;4967213;28;20046;-59
2021/07/25 08:32:39;;;;;;;17.02;4.35;;;;;;;;;;4968729;28;20122;-58
2021/07/25 08:35:11;;;;;;;14.65;5.13;;;;;;;;;;4967456;28;20516;-60
2021/07/25 08:37:40;;;;;;;10.88;3.90;;;;;;;;;;4960758;28;20141;-59
2021/07/25 08:40:14;;;;;;;11.82;3.50;;;;;;;;;;4966326;28;20435;-60
2021/07/25 08:42:45;;;;;;;12.90;4.38;;;;;;;;;;4966118;28;20082;-59
2021/07/25 08:45:13;;;;;;;4.90;3.15;;;;;;;;;;4963252;28;20145;-58
2021/07/25 08:47:42;;;;;;;5.88;3.67;;;;;;;;;;4963355;28;20053;-59
2021/07/25 08:50:12;;;;;;;10.38;4.13;;;;;;;;;;4963552;28;20471;-60
2021/07/25 08:52:41;;;;;;;6.05;3.67;;;;;;;;;;4962148;28;20057;-59
2021/07/25 08:55:12;;;;;;;10.88;4.00;;;;;;;;;;4964091;28;20154;-59
2021/07/25 08:57:41;;;;;;;5.90;3.58;;;;;;;;;;4964943;28;20142;-60
2021/07/25 09:00:10;;;;;;;8.20;3.70;;;;;;;;;;4964560;28;20412;-59
2021/07/25 09:02:39;;;;;;;11.00;4.75;;;;;;;;;;4963921;28;20086;-59
2021/07/25 09:05:10;;;;;;;7.03;3.20;;;;;;;;;;4949211;28;20498;-59
2021/07/25 09:07:39;;;;;;;5.70;3.88;;;;;;;;;;4947183;29;20055;-59
2021/07/25 09:10:09;;;;;;;11.60;3.95;;;;;;;;;;4948300;28;20082;-59
2021/07/25 09:12:39;;;;;;;6.88;3.85;;;;;;;;;;4953428;28;20073;-59
2021/07/25 09:15:09;;;;;;;6.00;3.80;;;;;;;;;;4952325;28;20051;-59
2021/07/25 09:17:38;;;;;;;22.15;3.50;;;;;;;;;;4951617;29;20130;-58
2021/07/25 09:20:13;;;;;;;10.65;3.17;;;;;;;;;;4951981;29;20130;-59
2021/07/25 09:22:59;;;;;;;8.55;3.78;;;;;;;;;;4934290;29;20150;-58
2021/07/25 09:25:28;;;;;;;11.43;3.15;;;;;;;;;;4949888;28;20106;-58
2021/07/25 09:28:14;;;;;;;8.98;3.67;;;;;;;;;;4950512;29;20043;-59
2021/07/25 09:30:44;;;;;;;8.13;3.05;;;;;;;;;;4947216;29;20047;-59
2021/07/25 09:33:26;;;;;;;6.07;3.35;;;;;;;;;;4944789;29;20481;-59
2021/07/25 09:36:01;;;;;;;6.82;3.38;;;;;;;;;;4943182;29;20048;-59
2021/07/25 09:38:30;;;;;;;5.93;3.50;;;;;;;;;;4944087;28;20059;-59
2021/07/25 09:40:58;;;;;;;5.65;3.38;;;;;;;;;;4939586;28;20058;-59
2021/07/25 09:43:27;;;;;;;8.52;3.47;;;;;;;;;;4953887;28;20085;-59
2021/07/25 09:45:58;;;;;;;7.18;2.92;;;;;;;;;;4947965;28;20129;-59
2021/07/25 09:48:27;;;;;;;7.13;3.28;;;;;;;;;;4943505;29;20059;-60
2021/07/25 09:50:57;;;;;;;7.30;3.42;;;;;;;;;;4942326;28;20048;-58
2021/07/25 09:53:45;;;;;;;7.75;3.35;;;;;;;;;;4938735;29;20055;-58
2021/07/25 09:56:14;;;;;;;4.22;2.90;;;;;;;;;;4945366;29;20510;-57
2021/07/25 09:58:43;;;;;;;4.53;3.33;;;;;;;;;;4946674;29;20507;-58
2021/07/25 10:01:33;;;;;;;5.20;3.15;;;;;;;;;;4942819;28;20074;-58
2021/07/25 10:04:12;;;;;;;15.98;3.20;;;;;;;;;;4949437;28;20051;-59
2021/07/25 10:06:41;;;;;;;9.93;3.33;;;;;;;;;;4951171;29;20101;-58
2021/07/25 10:09:10;;;;;;;12.30;3.60;;;;;;;;;;4946612;29;20133;-58
2021/07/25 10:11:41;;;;;;;4.85;3.30;;;;;;;;;;4935312;29;20051;-59
2021/07/25 10:14:10;;;;;;;6.40;2.75;;;;;;;;;;4947409;29;20495;-59
2021/07/25 10:16:40;;;;;;;5.22;2.67;;;;;;;;;;4948993;29;20051;-58
2021/07/25 10:19:09;;;;;;;6.82;3.13;;;;;;;;;;4950280;29;20540;-57
2021/07/25 10:21:38;;;;;;;5.18;3.03;;;;;;;;;;4949775;29;20078;-58
2021/07/25 10:24:08;;;;;;;9.50;3.00;;;;;;;;;;4934939;29;20055;-58
2021/07/25 10:26:40;;;;;;;5.15;2.60;;;;;;;;;;4947756;29;20087;-58
2021/07/25 10:29:08;;;;;;;7.28;2.63;;;;;;;;;;4944984;29;20065;-58
2021/07/25 10:31:40;;;;;;;10.13;3.05;;;;;;;;;;4942082;29;20056;-58
2021/07/25 10:34:12;;;;;;;4.88;2.55;;;;;;;;;;4945037;28;20510;-59
2021/07/25 10:36:41;;;;;;;3.83;2.25;;;;;;;;;;4947691;29;20149;-58
2021/07/25 10:39:09;;;;;;;4.32;2.80;;;;;;;;;;4948574;28;20106;-58
2021/07/25 10:41:38;;;;;;;5.68;3.40;;;;;;;;;;4941941;29;20134;-58
2021/07/25 10:44:07;;;;;;;12.00;4.40;;;;;;;;;;4944862;29;20051;-58
2021/07/25 10:46:38;;;;;;;10.57;4.57;;;;;;;;;;4947249;29;20058;-58
2021/07/25 10:49:12;;;;;;;10.07;4.25;;;;;;;;;;4940796;29;20063;-58
2021/07/25 10:52:00;;;;;;;6.90;3.50;;;;;;;;;;4945866;29;20051;-59
2021/07/25 10:54:49;;;;;;;6.28;3.10;;;;;;;;;;4948523;29;20062;-57
2021/07/25 10:57:19;;;;;;;5.90;2.80;;;;;;;;;;4949224;29;20071;-57
2021/07/25 10:59:50;;;;;;;5.20;2.63;;;;;;;;;;4950985;29;20062;-58
2021/07/25 11:02:37;;;;;;;8.82;3.33;;;;;;;;;;4942121;28;20157;-58
2021/07/25 11:05:08;;;;;;;10.05;3.00;;;;;;;;;;4960389;28;20047;-59
2021/07/25 11:07:37;;;;;;;4.72;3.15;;;;;;;;;;4949641;29;20134;-58
2021/07/25 11:10:07;;;;;;;5.68;2.47;;;;;;;;;;4947143;29;20123;-57
2021/07/25 11:12:55;;;;;;;5.25;2.50;;;;;;;;;;4952520;29;20127;-59
2021/07/25 11:15:32;;;;;;;5.65;2.38;;;;;;;;;;4951226;29;20061;-59
2021/07/25 11:18:01;;;;;;;6.90;2.50;;;;;;;;;;4948438;29;20048;-58
2021/07/25 11:20:52;;;;;;;4.88;2.72;;;;;;;;;;4948327;29;20075;-59
2021/07/25 11:23:36;;;;;;;4.25;2.20;;;;;;;;;;4942198;29;20135;-58
2021/07/25 11:26:19;;;;;;;7.22;2.20;;;;;;;;;;4951479;28;20055;-59
2021/07/25 11:28:47;;;;;;;5.38;2.00;;;;;;;;;;4935212;28;20551;-58
2021/07/25 11:31:16;;;;;;;7.50;2.40;;;;;;;;;;4963114;28;20594;-58
2021/07/25 11:33:45;;;;;;;8.10;4.88;;;;;;;;;;4952789;28;20051;-58
2021/07/25 11:36:15;;;;;;;7.65;3.88;;;;;;;;;;4952477;28;20486;-58
2021/07/25 11:38:48;;;;;;;4.32;3.25;;;;;;;;;;4952057;28;20134;-57
2021/07/25 11:41:20;;;;;;;19.55;7.93;;;;;;;;;;4953317;28;20134;-58
2021/07/25 11:43:51;;;;;;;10.32;5.75;;;;;;;;;;4952810;28;20150;-57
2021/07/25 11:46:23;;;;;;;9.90;6.15;;;;;;;;;;4952373;28;20460;-58
2021/07/25 11:49:05;;;;;;;12.80;5.05;;;;;;;;;;4951359;28;20114;-57
2021/07/25 11:51:33;;;;;;;6.45;3.30;;;;;;;;;;4953329;28;20086;-57
2021/07/25 11:54:03;;;;;;;8.10;5.13;;;;;;;;;;4952366;28;20051;-57
2021/07/25 11:56:31;;;;;;;7.53;3.47;;;;;;;;;;4952553;29;20594;-57
2021/07/25 11:59:03;;;;;;;7.13;3.20;;;;;;;;;;4946216;29;20043;-58
2021/07/25 12:01:32;;;;;;;6.13;3.47;;;;;;;;;;4952421;29;20057;-58
2021/07/25 12:04:01;;;;;;;18.95;3.35;;;;;;;;;;4952168;28;20356;-58
2021/07/25 12:06:30;;;;;;;7.45;2.90;;;;;;;;;;4971105;28;20530;-57
2021/07/25 12:09:06;;;;;;;7.45;2.72;;;;;;;;;;4971231;28;20053;-58
2021/07/25 12:11:35;;;;;;;4.22;2.60;;;;;;;;;;4972096;28;20129;-58
2021/07/25 12:14:03;;;;;;;3.22;2.70;;;;;;;;;;4970587;28;20051;-57
2021/07/25 12:16:48;;;;;;;3.95;2.65;;;;;;;;;;4967264;28;20054;-58
2021/07/25 12:19:17;;;;;;;8.77;2.67;;;;;;;;;;4970920;28;20050;-58
2021/07/25 12:21:46;;;;;;;4.75;2.72;;;;;;;;;;4971416;28;20057;-58
2021/07/25 12:24:29;;;;;;;5.65;3.08;;;;;;;;;;4965822;28;20081;-57
2021/07/25 12:26:58;;;;;;;4.50;2.92;;;;;;;;;;4968309;28;20043;-56
2021/07/25 12:29:35;;;;;;;9.40;2.90;;;;;;;;;;4966878;28;20110;-58
2021/07/25 12:32:19;;;;;;;5.80;2.67;;;;;;;;;;4970123;28;20129;-58
2021/07/25 12:34:48;;;;;;;6.18;2.28;;;;;;;;;;4965218;28;20057;-59
2021/07/25 12:37:29;;;;;;;6.97;2.70;;;;;;;;;;4969030;28;20106;-58
2021/07/25 12:40:06;;;;;;;4.88;2.58;;;;;;;;;;4964663;28;20078;-58
2021/07/25 12:42:41;;;;;;;5.72;3.30;;;;;;;;;;4968881;28;20430;-59
2021/07/25 12:45:23;;;;;;;6.07;2.63;;;;;;;;;;4969200;28;20134;-57
2021/07/25 12:48:08;;;;;;;4.13;2.65;;;;;;;;;;4969625;28;20134;-57
2021/07/25 12:50:51;;;;;;;4.20;2.63;;;;;;;;;;4970712;28;20250;-57
2021/07/25 12:53:19;;;;;;;10.70;2.72;;;;;;;;;;4955670;28;20101;-57
2021/07/25 12:55:49;;;;;;;4.72;3.30;;;;;;;;;;4963952;28;20533;-59
2021/07/25 12:58:18;;;;;;;5.10;2.55;;;;;;;;;;4968313;28;20054;-57
2021/07/25 13:03:58;;;;;;;4.25;2.25;;;;;;;;;;4966448;28;20510;-57
2021/07/25 13:06:28;;;;;;;6.15;3.22;;;;;;;;;;4949238;28;20057;-57
2021/07/25 13:08:57;;;;;;;11.18;4.53;;;;;;;;;;4963446;28;20475;-56
2021/07/25 13:11:28;;;;;;;9.75;3.65;;;;;;;;;;4958981;28;20077;-59
2021/07/25 13:13:58;;;;;;;7.22;2.72;;;;;;;;;;4968014;28;20134;-57
2021/07/25 13:16:26;;;;;;;6.72;3.10;;;;;;;;;;4966871;28;20055;-57
2021/07/25 13:18:56;;;;;;;9.27;3.63;;;;;;;;;;4966431;28;20138;-57
2021/07/25 13:21:24;;;;;;;6.07;3.20;;;;;;;;;;4970601;28;20051;-57
2021/07/25 13:23:53;;;;;;;6.75;3.08;;;;;;;;;;4964284;28;20043;-57
2021/07/25 13:26:21;;;;;;;5.38;3.58;;;;;;;;;;4967560;28;20486;-57
2021/07/25 13:28:51;;;;;;;6.65;3.10;;;;;;;;;;4969427;28;20130;-58
2021/07/25 13:31:19;;;;;;;6.28;3.30;;;;;;;;;;4971231;28;20130;-58
2021/07/25 13:33:48;;;;;;;6.68;3.15;;;;;;;;;;4968767;28;20061;-57
2021/07/25 13:36:16;;;;;;;7.45;3.70;;;;;;;;;;4969140;28;20149;-58
2021/07/25 13:38:45;;;;;;;8.68;3.05;;;;;;;;;;4971045;28;20525;-56
2021/07/25 13:41:14;;;;;;;5.65;3.15;;;;;;;;;;4970905;28;20126;-58
2021/07/25 13:43:43;;;;;;;6.60;3.30;;;;;;;;;;4970849;28;20511;-59
2021/07/25 13:46:17;;;;;;;7.45;3.60;;;;;;;;;;4966754;28;20070;-58
2021/07/25 13:48:46;;;;;;;5.88;3.38;;;;;;;;;;4964831;28;20526;-59
2021/07/25 13:51:15;;;;;;;7.93;3.55;;;;;;;;;;4964668;28;20082;-58
2021/07/25 13:53:44;;;;;;;7.70;3.50;;;;;;;;;;4969333;28;20476;-58
2021/07/25 13:56:15;;;;;;;6.38;3.28;;;;;;;;;;4966308;28;20050;-58
2021/07/25 13:58:43;;;;;;;7.32;3.08;;;;;;;;;;4951798;29;20051;-58
2021/07/25 14:01:12;;;;;;;6.00;3.30;;;;;;;;;;4952548;28;20086;-58
2021/07/25 14:03:42;;;;;;;7.95;3.47;;;;;;;;;;4969668;28;20058;-57
2021/07/25 14:06:10;;;;;;;6.45;3.20;;;;;;;;;;4966939;28;20134;-59
2021/07/25 14:08:39;;;;;;;7.68;3.15;;;;;;;;;;4964961;28;20082;-58
2021/07/25 14:11:10;;;;;;;5.13;3.05;;;;;;;;;;4970864;28;20043;-59
2021/07/25 14:13:38;;;;;;;4.75;3.28;;;;;;;;;;4960436;28;20078;-57
2021/07/25 14:16:07;;;;;;;3.70;2.65;;;;;;;;;;4964483;28;20126;-58
2021/07/25 14:18:35;;;;;;;5.05;3.08;;;;;;;;;;4969461;28;20499;-57
2021/07/25 14:21:10;;;;;;;4.65;3.15;;;;;;;;;;4969001;28;20074;-58
2021/07/25 14:23:39;;;;;;;4.82;2.92;;;;;;;;;;4971606;28;20055;-56
2021/07/25 14:26:08;;;;;;;6.43;3.90;;;;;;;;;;4970897;28;20043;-58
2021/07/25 14:28:36;;;;;;;6.13;3.22;;;;;;;;;;4971261;28;20459;-57
2021/07/25 14:31:04;;;;;;;6.18;3.20;;;;;;;;;;4970312;28;20081;-57
2021/07/25 14:33:37;;;;;;;5.07;3.10;;;;;;;;;;4971284;28;20125;-58
2021/07/25 14:36:06;;;;;;;5.40;2.95;;;;;;;;;;4970778;28;20055;-57
2021/07/25 14:38:36;;;;;;;4.47;2.95;;;;;;;;;;4970543;28;20083;-59
2021/07/25 14:41:05;;;;;;;5.00;3.22;;;;;;;;;;4974269;28;20518;-59
2021/07/25 14:43:33;;;;;;;9.23;4.03;;;;;;;;;;4974356;28;20055;-58
2021/07/25 14:46:01;;;;;;;4.15;2.97;;;;;;;;;;4973811;28;20058;-59
2021/07/25 14:48:30;;;;;;;5.20;2.97;;;;;;;;;;4974549;28;20157;-57
2021/07/25 14:51:05;;;;;;;5.80;2.80;;;;;;;;;;4973295;28;20130;-58
2021/07/25 14:53:33;;;;;;;;;;;;;;;;;;4963662;28;20081;-57
2021/07/25 14:56:07;;;;;;;5.93;3.00;;;;;;;;;;4974773;28;19921;-57
2021/07/25 14:58:37;;;;;;;4.35;3.25;;;;;;;;;;4975673;28;20134;-57
2021/07/25 15:01:09;;;;;;;5.90;2.88;;;;;;;;;;4975377;28;20047;-59
2021/07/25 15:03:38;;;;;;;4.88;2.92;;;;;;;;;;4975849;28;20061;-58
2021/07/25 15:06:06;;;;;;;3.60;2.80;;;;;;;;;;4966143;28;20055;-56